createdAt,value
2023-09-14T00:01:38.653Z,6.63
2023-09-14T00:04:08.095Z,11.23
2023-09-14T00:06:40.867Z,7.13
2023-09-14T00:09:11.301Z,7.32
2023-09-14T00:11:40.586Z,7.82
2023-09-14T00:14:09.240Z,10.98
2023-09-14T00:16:37.593Z,10.05
2023-09-14T00:19:08.435Z,6.85
2023-09-14T00:21:40.197Z,6.80
2023-09-14T00:24:11.438Z,6.15
2023-09-14T00:26:39.808Z,13.57
2023-09-14T00:29:09.155Z,7.90
2023-09-14T00:31:40.186Z,9.82
2023-09-14T00:34:12.245Z,9.20
2023-09-14T00:36:42.233Z,6.60
2023-09-14T00:39:12.176Z,7.78
2023-09-14T00:41:42.903Z,7.82
2023-09-14T00:44:13.421Z,4.63
2023-09-14T00:46:42.657Z,8.95
2023-09-14T00:49:12.135Z,5.40
2023-09-14T00:51:43.114Z,11.63
2023-09-14T00:54:13.688Z,7.43
2023-09-14T00:56:43.867Z,6.55
2023-09-14T00:59:17.438Z,6.38
2023-09-14T01:01:53.374Z,6.68
2023-09-14T01:04:22.416Z,9.43
2023-09-14T01:06:52.458Z,7.22
2023-09-14T01:09:21.660Z,7.72
2023-09-14T01:11:50.161Z,8.82
2023-09-14T01:14:24.083Z,7.82
2023-09-14T01:17:00.668Z,6.90
2023-09-14T01:19:43.147Z,7.43
2023-09-14T01:22:23.611Z,8.73
2023-09-14T01:25:00.491Z,10.55
2023-09-14T01:27:41.412Z,8.95
2023-09-14T01:30:13.152Z,10.85
2023-09-14T01:32:41.783Z,10.40
2023-09-14T01:35:10.654Z,8.32
2023-09-14T01:37:39.036Z,13.32
2023-09-14T01:40:12.809Z,7.60
2023-09-14T01:42:43.430Z,7.47
2023-09-14T01:45:12.595Z,7.60
2023-09-14T01:47:44.184Z,8.65
2023-09-14T01:50:12.549Z,9.93
2023-09-14T01:52:41.870Z,11.32
2023-09-14T01:55:11.767Z,11.75
2023-09-14T01:57:40.503Z,10.73
2023-09-14T02:00:12.396Z,8.65
2023-09-14T02:02:41.402Z,12.57
2023-09-14T02:05:12.750Z,12.48
2023-09-14T02:07:41.393Z,6.10
2023-09-14T02:10:11.293Z,9.38
2023-09-14T02:12:39.577Z,10.50
2023-09-14T02:15:16.873Z,7.68
2023-09-14T02:17:45.736Z,9.35
2023-09-14T02:20:14.572Z,7.78
2023-09-14T02:22:43.032Z,15.02
2023-09-14T02:25:11.284Z,11.15
2023-09-14T02:27:39.867Z,7.97
2023-09-14T02:30:12.042Z,7.90
2023-09-14T02:32:42.649Z,8.98
2023-09-14T02:35:10.947Z,6.25
2023-09-14T02:37:39.600Z,7.38
2023-09-14T02:40:09.086Z,14.25
2023-09-14T02:42:42.920Z,6.03
2023-09-14T02:45:11.463Z,9.32
2023-09-14T02:47:41.365Z,8.70
2023-09-14T02:50:11.812Z,6.05
2023-09-14T02:52:40.134Z,14.88
2023-09-14T02:55:08.902Z,12.20
2023-09-14T02:57:38.304Z,10.52
2023-09-14T03:00:09.398Z,9.43
2023-09-14T03:02:38.455Z,11.07
2023-09-14T03:05:10.716Z,13.85
2023-09-14T03:07:40.953Z,12.25
2023-09-14T03:10:11.041Z,13.75
2023-09-14T03:12:39.456Z,16.75
2023-09-14T03:15:10.603Z,12.82
2023-09-14T03:17:38.686Z,16.85
2023-09-14T03:20:11.962Z,9.73
2023-09-14T03:22:41.087Z,11.15
2023-09-14T03:25:16.743Z,10.25
2023-09-14T03:27:46.108Z,11.13
2023-09-14T03:30:14.595Z,14.15
2023-09-14T03:32:42.791Z,9.68
2023-09-14T03:35:14.950Z,13.82
2023-09-14T03:40:12.930Z,11.80
2023-09-14T03:42:42.388Z,13.13
2023-09-14T03:45:12.104Z,9.35
2023-09-14T03:47:40.998Z,13.48
2023-09-14T03:50:12.919Z,14.27
2023-09-14T03:52:41.333Z,16.45
2023-09-14T03:55:11.305Z,11.63
2023-09-14T03:57:39.825Z,15.00
2023-09-14T04:00:12.405Z,11.65
2023-09-14T04:02:43.722Z,16.35
2023-09-14T04:05:17.887Z,14.38
2023-09-14T04:07:46.590Z,14.18
2023-09-14T04:10:15.276Z,15.55
2023-09-14T04:12:44.873Z,14.02
2023-09-14T04:15:14.385Z,13.40
2023-09-14T04:17:43.256Z,16.05
2023-09-14T04:20:12.133Z,10.63
2023-09-14T04:22:42.377Z,13.20
2023-09-14T04:25:10.692Z,15.95
2023-09-14T04:27:40.191Z,15.43
2023-09-14T04:30:12.126Z,8.70
2023-09-14T04:32:43.193Z,12.55
2023-09-14T04:35:12.442Z,14.32
2023-09-14T04:37:43.515Z,12.15
2023-09-14T04:40:13.974Z,15.05
2023-09-14T04:42:42.101Z,13.77
2023-09-14T04:45:14.638Z,17.92
2023-09-14T04:47:43.491Z,12.32
2023-09-14T04:50:13.021Z,11.35
2023-09-14T04:52:42.961Z,11.82
2023-09-14T04:55:12.304Z,13.88
2023-09-14T04:57:41.314Z,16.67
2023-09-14T05:00:11.474Z,14.15
2023-09-14T05:02:40.352Z,12.00
2023-09-14T05:05:10.914Z,16.15
2023-09-14T05:07:42.400Z,14.48
2023-09-14T05:10:12.630Z,13.93
2023-09-14T05:12:40.925Z,9.75
2023-09-14T05:15:10.601Z,12.10
2023-09-14T05:17:38.700Z,9.90
2023-09-14T05:20:10.305Z,12.95
2023-09-14T05:22:39.404Z,13.80
2023-09-14T05:25:08.619Z,9.35
2023-09-14T05:27:39.017Z,9.95
2023-09-14T05:30:10.029Z,11.73
2023-09-14T05:32:38.538Z,7.60
2023-09-14T05:35:07.940Z,8.27
2023-09-14T05:37:36.151Z,9.52
2023-09-14T05:40:11.444Z,5.38
2023-09-14T05:42:41.104Z,9.35
2023-09-14T05:45:12.819Z,8.88
2023-09-14T05:47:47.836Z,7.88
2023-09-14T05:50:19.135Z,7.50
2023-09-14T05:52:48.656Z,7.78
2023-09-14T05:55:17.176Z,10.52
2023-09-14T05:57:49.382Z,10.38
2023-09-14T06:00:20.581Z,11.30
2023-09-14T06:02:49.481Z,6.43
2023-09-14T06:05:25.286Z,7.32
2023-09-14T06:07:54.701Z,7.47
2023-09-14T06:10:24.531Z,6.53
2023-09-14T06:12:54.755Z,7.28
2023-09-14T06:15:23.784Z,9.25
2023-09-14T06:17:54.505Z,6.88
2023-09-14T06:20:22.688Z,10.95
2023-09-14T06:22:50.818Z,5.75
2023-09-14T06:25:22.246Z,6.97
2023-09-14T06:27:51.940Z,9.95
2023-09-14T06:30:22.160Z,6.22
2023-09-14T06:32:50.736Z,6.30
2023-09-14T06:35:18.843Z,4.38
2023-09-14T06:37:48.200Z,8.90
2023-09-14T06:40:20.704Z,5.38
2023-09-14T06:42:51.302Z,7.90
2023-09-14T06:45:24.386Z,4.45
2023-09-14T06:47:54.574Z,8.13
2023-09-14T06:50:23.291Z,5.65
2023-09-14T06:52:52.103Z,5.47
2023-09-14T06:55:21.266Z,8.38
2023-09-14T06:57:50.218Z,7.38
2023-09-14T07:00:22.986Z,7.63
2023-09-14T07:02:53.713Z,12.73
2023-09-14T07:05:22.291Z,7.05
2023-09-14T07:07:52.096Z,7.32
2023-09-14T07:10:22.406Z,6.30
2023-09-14T07:12:50.849Z,8.35
2023-09-14T07:15:19.292Z,6.05
2023-09-14T07:17:51.171Z,8.27
2023-09-14T07:20:22.812Z,7.90
2023-09-14T07:22:52.363Z,6.82
2023-09-14T07:25:24.381Z,6.78
2023-09-14T07:30:25.601Z,6.85
2023-09-14T07:32:55.820Z,6.50
2023-09-14T07:35:24.474Z,5.82
2023-09-14T07:37:52.535Z,6.68
2023-09-14T07:40:24.240Z,7.85
2023-09-14T07:42:52.826Z,4.28
2023-09-14T07:45:20.991Z,5.13
2023-09-14T07:47:50.049Z,5.40
2023-09-14T07:50:20.491Z,5.85
2023-09-14T07:52:49.798Z,6.75
2023-09-14T07:55:18.002Z,9.40
2023-09-14T07:57:48.358Z,7.50
2023-09-14T08:00:19.069Z,5.22
2023-09-14T08:02:47.672Z,6.38
2023-09-14T08:05:16.896Z,8.40
2023-09-14T08:07:47.475Z,4.63
2023-09-14T08:10:17.554Z,5.30
2023-09-14T08:12:50.787Z,5.82
2023-09-14T08:15:19.341Z,8.80
2023-09-14T08:17:50.619Z,7.20
2023-09-14T08:20:22.407Z,7.00
2023-09-14T08:22:52.299Z,6.22
2023-09-14T08:25:21.531Z,5.68
2023-09-14T08:27:49.705Z,4.65
2023-09-14T08:30:19.922Z,4.68
2023-09-14T08:32:49.415Z,8.98
2023-09-14T08:35:25.235Z,5.97
2023-09-14T08:37:55.719Z,4.20
2023-09-14T08:40:25.452Z,3.97
2023-09-14T08:42:57.387Z,5.15
2023-09-14T08:45:28.694Z,3.60
2023-09-14T08:48:00.304Z,5.37
2023-09-14T08:50:33.271Z,9.30
2023-09-14T08:53:06.141Z,5.57
2023-09-14T08:55:37.367Z,5.18
2023-09-14T08:58:06.255Z,4.87
2023-09-14T09:00:38.898Z,7.65
2023-09-14T09:03:08.215Z,5.78
2023-09-14T09:05:36.534Z,4.63
2023-09-14T09:08:07.266Z,5.93
2023-09-14T09:10:38.547Z,6.70
2023-09-14T09:13:08.875Z,9.35
2023-09-14T09:15:41.036Z,3.30
2023-09-14T09:18:10.688Z,11.23
2023-09-14T09:20:41.527Z,4.53
2023-09-14T09:23:12.630Z,6.85
2023-09-14T09:25:45.947Z,5.80
2023-09-14T09:28:14.947Z,5.53
2023-09-14T09:30:43.818Z,3.38
2023-09-14T09:33:13.843Z,3.08
2023-09-14T09:35:43.041Z,5.50
2023-09-14T09:38:15.275Z,8.18
2023-09-14T09:40:45.656Z,6.60
2023-09-14T09:43:17.209Z,3.50
2023-09-14T09:45:47.631Z,7.63
2023-09-14T09:48:16.627Z,3.78
2023-09-14T09:50:47.054Z,4.72
2023-09-14T09:53:18.414Z,3.75
2023-09-14T09:55:47.359Z,4.65
2023-09-14T09:58:18.737Z,5.75
2023-09-14T10:00:50.449Z,4.88
2023-09-14T10:03:19.681Z,6.85
2023-09-14T10:05:48.253Z,5.28
2023-09-14T10:08:22.032Z,4.65
2023-09-14T10:10:52.763Z,4.35
2023-09-14T10:13:23.704Z,8.23
2023-09-14T10:15:57.460Z,3.50
2023-09-14T10:18:29.299Z,7.82
2023-09-14T10:20:59.946Z,5.18
2023-09-14T10:23:30.427Z,4.80
2023-09-14T10:26:01.452Z,5.05
2023-09-14T10:28:31.498Z,2.88
2023-09-14T10:31:03.735Z,6.90
2023-09-14T10:36:06.471Z,5.03
2023-09-14T10:38:40.144Z,4.60
2023-09-14T10:41:08.789Z,5.82
2023-09-14T10:43:38.260Z,6.05
2023-09-14T10:46:07.817Z,4.28
2023-09-14T10:48:46.376Z,3.97
2023-09-14T10:51:17.009Z,5.53
2023-09-14T10:53:48.118Z,3.95
2023-09-14T10:56:23.775Z,3.50
2023-09-14T10:58:56.559Z,2.03
2023-09-14T11:04:13.480Z,4.43
2023-09-14T11:06:50.376Z,3.88
2023-09-14T11:09:23.152Z,5.03
2023-09-14T11:11:54.634Z,2.67
2023-09-14T11:14:28.872Z,5.95
2023-09-14T11:17:02.263Z,6.47
2023-09-14T11:19:56.288Z,4.68
2023-09-14T11:22:29.172Z,5.28
2023-09-14T11:25:00.449Z,5.03
2023-09-14T11:27:30.074Z,6.88
2023-09-14T11:30:00.632Z,4.15
2023-09-14T11:32:32.054Z,4.68
2023-09-14T11:35:05.334Z,4.85
2023-09-14T11:37:40.857Z,4.93
2023-09-14T11:40:21.238Z,5.18
2023-09-14T11:46:11.338Z,5.43
2023-09-14T11:51:17.279Z,6.55
2023-09-14T11:53:48.817Z,3.38
2023-09-14T11:56:22.359Z,2.75
2023-09-14T11:58:51.697Z,4.13
2023-09-14T12:01:22.925Z,5.45
2023-09-14T12:03:51.689Z,3.25
2023-09-14T12:06:21.139Z,6.68
2023-09-14T12:08:50.605Z,3.65
2023-09-14T12:11:24.890Z,3.60
2023-09-14T12:13:55.660Z,5.07
2023-09-14T12:16:26.266Z,4.55
2023-09-14T12:18:58.072Z,5.20
2023-09-14T12:21:26.653Z,3.15
2023-09-14T12:23:59.069Z,7.95
2023-09-14T12:26:30.816Z,3.80
2023-09-14T12:29:01.444Z,1.88
2023-09-14T12:31:30.496Z,2.88
2023-09-14T12:34:03.187Z,2.90
2023-09-14T12:36:40.471Z,5.03
2023-09-14T12:39:14.706Z,6.03
2023-09-14T12:41:47.455Z,5.15
2023-09-14T12:44:21.378Z,4.68
2023-09-14T12:46:50.341Z,3.60
2023-09-14T12:49:18.341Z,5.97
2023-09-14T12:51:49.059Z,10.65
2023-09-14T12:54:19.303Z,3.50
2023-09-14T12:56:48.649Z,4.57
2023-09-14T12:59:16.756Z,8.65
2023-09-14T13:01:45.273Z,5.30
2023-09-14T13:04:13.787Z,2.88
2023-09-14T13:06:42.320Z,3.10
2023-09-14T13:09:10.828Z,6.32
2023-09-14T13:11:40.368Z,3.42
2023-09-14T13:14:10.650Z,4.55
2023-09-14T13:16:54.287Z,3.22
2023-09-14T13:19:26.303Z,5.53
2023-09-14T13:21:54.855Z,4.90
2023-09-14T13:24:26.315Z,8.33
2023-09-14T13:26:54.682Z,4.43
2023-09-14T13:29:24.272Z,5.88
2023-09-14T13:31:53.197Z,4.70
2023-09-14T13:34:21.554Z,4.28
2023-09-14T13:36:53.971Z,3.78
2023-09-14T13:39:22.299Z,4.10
2023-09-14T13:41:52.784Z,4.28
2023-09-14T13:44:24.098Z,4.28
2023-09-14T13:46:52.247Z,5.57
2023-09-14T13:49:21.989Z,2.95
2023-09-14T13:51:50.822Z,3.40
2023-09-14T13:54:19.081Z,5.57
2023-09-14T13:56:47.232Z,5.55
2023-09-14T13:59:15.501Z,3.75
2023-09-14T14:01:44.966Z,6.75
2023-09-14T14:04:15.535Z,5.63
2023-09-14T14:06:44.642Z,4.88
2023-09-14T14:09:12.915Z,6.30
2023-09-14T14:11:42.051Z,4.30
2023-09-14T14:14:10.809Z,2.97
2023-09-14T14:16:43.232Z,4.97
2023-09-14T14:19:15.368Z,3.53
2023-09-14T14:21:44.718Z,7.85
2023-09-14T14:24:13.947Z,4.38
2023-09-14T14:26:45.412Z,5.07
2023-09-14T14:29:14.702Z,5.38
2023-09-14T14:31:43.895Z,6.10
2023-09-14T14:34:16.716Z,3.60
2023-09-14T14:36:46.712Z,4.72
2023-09-14T14:39:16.498Z,4.10
2023-09-14T14:41:46.823Z,4.25
2023-09-14T14:44:16.369Z,4.63
2023-09-14T14:46:45.485Z,2.63
2023-09-14T14:49:16.067Z,4.95
2023-09-14T14:51:45.443Z,3.10
2023-09-14T14:54:14.580Z,4.45
2023-09-14T14:56:45.240Z,2.95
2023-09-14T14:59:14.760Z,4.50
2023-09-14T15:01:44.303Z,2.45
2023-09-14T15:04:14.012Z,4.50
2023-09-14T15:06:43.967Z,4.32
2023-09-14T15:09:14.337Z,4.85
2023-09-14T15:11:43.505Z,3.22
2023-09-14T15:14:12.705Z,4.57
2023-09-14T15:16:41.908Z,5.95
2023-09-14T15:19:11.537Z,6.35
2023-09-14T15:21:52.378Z,3.78
2023-09-14T15:24:21.248Z,6.80
2023-09-14T15:26:50.758Z,6.40
2023-09-14T15:29:20.052Z,6.03
2023-09-14T15:31:50.411Z,3.58
2023-09-14T15:34:20.357Z,7.13
2023-09-14T15:36:52.072Z,6.93
2023-09-14T15:39:22.149Z,5.47
2023-09-14T15:41:52.154Z,4.78
2023-09-14T15:44:24.248Z,3.30
2023-09-14T15:46:57.973Z,3.60
2023-09-14T15:49:27.876Z,5.28
2023-09-14T15:52:00.533Z,4.40
2023-09-14T15:54:30.410Z,4.03
2023-09-14T15:57:03.296Z,3.28
2023-09-14T15:59:32.931Z,3.38
2023-09-14T16:02:05.759Z,3.40
2023-09-14T16:04:39.277Z,6.85
2023-09-14T16:07:10.921Z,2.92
2023-09-14T16:09:41.402Z,2.58
2023-09-14T16:12:10.883Z,3.63
2023-09-14T16:14:39.919Z,6.68
2023-09-14T16:17:09.807Z,4.78
2023-09-14T16:19:40.688Z,5.15
2023-09-14T16:22:11.296Z,2.60
2023-09-14T16:24:40.165Z,2.90
2023-09-14T16:27:08.983Z,4.47
2023-09-14T16:29:40.840Z,4.03
2023-09-14T16:32:12.636Z,3.00
2023-09-14T16:34:42.845Z,3.45
2023-09-14T16:37:16.008Z,3.45
2023-09-14T16:39:45.557Z,2.88
2023-09-14T16:42:14.166Z,7.13
2023-09-14T16:44:43.084Z,2.63
2023-09-14T16:47:11.711Z,2.45
2023-09-14T16:49:39.877Z,5.60
2023-09-14T16:52:10.206Z,4.88
2023-09-14T16:54:40.249Z,4.10
2023-09-14T16:57:09.904Z,4.65
2023-09-14T16:59:41.802Z,3.92
2023-09-14T17:02:12.579Z,3.13
2023-09-14T17:04:46.143Z,4.72
2023-09-14T17:07:16.090Z,6.13
2023-09-14T17:09:46.440Z,5.63
2023-09-14T17:12:14.944Z,10.10
2023-09-14T17:14:44.927Z,6.97
2023-09-14T17:17:13.052Z,5.25
2023-09-14T17:19:41.884Z,5.47
2023-09-14T17:22:13.235Z,5.53
2023-09-14T17:24:42.816Z,4.80
2023-09-14T17:27:12.376Z,4.82
2023-09-14T17:29:40.855Z,6.82
2023-09-14T17:32:12.059Z,6.78
2023-09-14T17:34:41.173Z,4.38
2023-09-14T17:37:10.601Z,6.75
2023-09-14T17:39:44.489Z,4.10
2023-09-14T17:42:15.434Z,4.72
2023-09-14T17:44:44.863Z,5.53
2023-09-14T17:47:14.689Z,9.30
2023-09-14T17:49:43.326Z,10.10
2023-09-14T17:52:14.127Z,8.20
2023-09-14T17:54:42.751Z,7.05
2023-09-14T17:57:12.200Z,7.28
2023-09-14T17:59:43.513Z,7.38
2023-09-14T18:02:12.947Z,10.82
2023-09-14T18:04:43.851Z,25.90
2023-09-14T18:07:13.416Z,40.40
2023-09-14T18:09:42.482Z,33.75
2023-09-14T18:12:10.997Z,19.63
2023-09-14T18:14:40.352Z,15.90
2023-09-14T18:17:10.020Z,24.90
2023-09-14T18:19:39.571Z,32.95
2023-09-14T18:22:08.786Z,11.98
2023-09-14T18:24:38.779Z,12.98
2023-09-14T18:27:08.165Z,23.35
2023-09-14T18:29:39.889Z,18.17
2023-09-14T18:32:10.673Z,13.25
2023-09-14T18:34:41.638Z,12.55
2023-09-14T18:37:10.094Z,9.23
2023-09-14T18:39:40.385Z,9.88
2023-09-14T18:42:09.492Z,10.13
2023-09-14T18:44:38.822Z,8.77
2023-09-14T18:47:10.931Z,8.75
2023-09-14T18:49:39.667Z,7.72
2023-09-14T18:52:08.567Z,7.00
2023-09-14T18:54:37.055Z,7.05
2023-09-14T18:57:06.192Z,10.05
2023-09-14T18:59:34.673Z,7.97
2023-09-14T19:02:03.684Z,6.80
2023-09-14T19:04:34.254Z,8.65
2023-09-14T19:07:06.417Z,8.13
2023-09-14T19:09:34.814Z,10.20
2023-09-14T19:12:04.145Z,7.57
2023-09-14T19:14:32.268Z,5.00
2023-09-14T19:17:02.865Z,7.85
2023-09-14T19:19:31.355Z,8.50
2023-09-14T19:22:01.357Z,4.90
2023-09-14T19:24:33.626Z,6.35
2023-09-14T19:27:03.740Z,5.32
2023-09-14T19:29:32.865Z,9.05
2023-09-14T19:32:02.484Z,7.03
2023-09-14T19:34:31.209Z,8.05
2023-09-14T19:37:02.938Z,7.53
2023-09-14T19:39:34.538Z,8.57
2023-09-14T19:42:04.487Z,8.77
2023-09-14T19:44:35.473Z,10.98
2023-09-14T19:47:06.704Z,8.13
2023-09-14T19:49:35.806Z,7.90
2023-09-14T19:52:06.735Z,8.15
2023-09-14T19:54:36.244Z,5.90
2023-09-14T19:57:05.853Z,8.77
2023-09-14T19:59:34.264Z,9.50
2023-09-14T20:02:04.740Z,9.93
2023-09-14T20:04:35.528Z,8.48
2023-09-14T20:07:08.096Z,10.40
2023-09-14T20:09:36.496Z,8.27
2023-09-14T20:12:06.447Z,8.93
2023-09-14T20:14:38.763Z,10.27
2023-09-14T20:19:40.326Z,10.90
2023-09-14T20:22:10.595Z,11.07
2023-09-14T20:24:40.434Z,7.68
2023-09-14T20:27:13.002Z,8.88
2023-09-14T20:29:44.825Z,9.35
2023-09-14T20:32:14.057Z,9.32
2023-09-14T20:34:42.783Z,7.65
2023-09-14T20:37:16.109Z,9.73
2023-09-14T20:39:44.906Z,7.18
2023-09-14T20:42:14.870Z,8.77
2023-09-14T20:44:43.461Z,9.63
2023-09-14T20:47:12.312Z,9.38
2023-09-14T20:49:40.578Z,6.72
2023-09-14T20:52:10.668Z,7.00
2023-09-14T20:54:40.732Z,6.88
2023-09-14T20:57:09.418Z,6.07
2023-09-14T20:59:38.690Z,6.35
2023-09-14T21:02:09.014Z,9.10
2023-09-14T21:04:37.684Z,10.77
2023-09-14T21:07:05.980Z,9.88
2023-09-14T21:09:34.799Z,6.20
2023-09-14T21:12:07.957Z,8.70
2023-09-14T21:14:46.228Z,7.28
2023-09-14T21:17:16.222Z,11.13
2023-09-14T21:19:45.866Z,6.38
2023-09-14T21:22:14.522Z,8.18
2023-09-14T21:24:43.300Z,8.65
2023-09-14T21:27:15.858Z,5.43
2023-09-14T21:29:46.789Z,7.72
2023-09-14T21:32:15.376Z,10.25
2023-09-14T21:34:43.815Z,5.78
2023-09-14T21:37:18.864Z,6.43
2023-09-14T21:39:52.107Z,5.05
2023-09-14T21:42:21.800Z,7.07
2023-09-14T21:44:51.217Z,5.32
2023-09-14T21:47:20.692Z,6.97
2023-09-14T21:49:50.638Z,8.55
2023-09-14T21:52:19.059Z,10.53
2023-09-14T21:54:47.637Z,8.68
2023-09-14T21:57:18.333Z,7.95
2023-09-14T21:59:48.147Z,5.50
2023-09-14T22:02:16.266Z,8.18
2023-09-14T22:04:46.889Z,8.13
2023-09-14T22:07:15.674Z,7.80
2023-09-14T22:09:44.659Z,7.95
2023-09-14T22:12:13.408Z,5.88
2023-09-14T22:14:44.549Z,7.88
2023-09-14T22:17:14.484Z,8.25
2023-09-14T22:19:43.288Z,7.53
2023-09-14T22:22:13.189Z,9.43
2023-09-14T22:24:41.606Z,6.78
2023-09-14T22:27:10.854Z,7.10
2023-09-14T22:29:43.326Z,9.73
2023-09-14T22:32:12.762Z,5.93
2023-09-14T22:34:44.114Z,7.38
2023-09-14T22:37:12.894Z,6.43
2023-09-14T22:39:41.779Z,6.82
2023-09-14T22:42:10.388Z,4.43
2023-09-14T22:44:43.023Z,7.05
2023-09-14T22:47:11.636Z,6.22
2023-09-14T22:49:40.206Z,4.57
2023-09-14T22:52:10.654Z,7.72
2023-09-14T22:54:38.866Z,8.02
2023-09-14T22:57:08.446Z,8.00
2023-09-14T22:59:38.630Z,11.60
2023-09-14T23:02:06.741Z,8.82
2023-09-14T23:04:35.988Z,7.78
2023-09-14T23:07:05.909Z,8.23
2023-09-14T23:09:36.590Z,9.10
2023-09-14T23:12:05.638Z,7.38
2023-09-14T23:14:34.828Z,6.72
2023-09-14T23:17:04.979Z,8.05
2023-09-14T23:19:33.994Z,6.55
2023-09-14T23:22:02.892Z,10.65
2023-09-14T23:24:31.620Z,7.10
2023-09-14T23:27:05.485Z,6.85
2023-09-14T23:29:34.830Z,6.45
2023-09-14T23:32:03.491Z,7.78
2023-09-14T23:34:33.070Z,6.80
2023-09-14T23:37:01.604Z,6.03
2023-09-14T23:39:31.342Z,11.70
2023-09-14T23:42:01.336Z,9.80
2023-09-14T23:44:31.797Z,7.55
2023-09-14T23:47:01.965Z,10.52
2023-09-14T23:49:30.420Z,7.68
2023-09-14T23:51:58.884Z,8.48
2023-09-14T23:54:30.181Z,7.70
2023-09-14T23:56:58.336Z,5.78
2023-09-14T23:59:35.209Z,8.05
